首页
METAR-TAF:

METAR-TAF

机场 :

Grand Rapids/Itasca County Airport (Gordon Newstrom Field)

Grand Rapids, 明尼蘇達州, 美国

纬度: 47-13N, 经度: 093-31W, 海拔: 413米

当前天气观测

该预报发布于17分钟前的05:56 UTC
风速5节,风向
温度 10°C
湿度 43%
气压 1026 hPa
能見度: 16.1公里
阴天层高于10000英尺

METAR: KGPZ 130556Z AUTO 19005KT 10SM OVC100 10/M02 A3031 RMK AO2 SLP270 T01001022 10183 20078 401891017 58002

时间: 01:13 (06:13 UTC)


TAF: 丢失

超过4000个机场的气象观测和天气预报(METAR&TAF报告)。

可查询的气象台以黄色和红色小点在地图上表示。

将鼠标移到小点上方,可查看气象台名称。

然后点击查看天气观测和预报。

如需切换地图:点击带黑十字的绿色按钮放大地图;点击带横线的绿色按钮缩小地图;或者点击绿色箭头查看邻近地区的地图。


METAR-TAF: